sensor_id;sensor_type;location;lat;lon;timestamp;P1;durP1;ratioP1;P2;durP2;ratioP2
55597;SDS011;41463;53.186;5.552;2022-12-29T00:02:32;20.38;;;12.73;;
55597;SDS011;41463;53.186;5.552;2022-12-29T00:05:11;13.98;;;11.10;;
55597;SDS011;41463;53.186;5.552;2022-12-29T00:07:50;16.45;;;10.43;;
55597;SDS011;41463;53.186;5.552;2022-12-29T00:10:41;11.98;;;9.60;;
55597;SDS011;41463;53.186;5.552;2022-12-29T00:13:20;13.25;;;8.98;;
55597;SDS011;41463;53.186;5.552;2022-12-29T00:16:12;10.45;;;7.57;;
55597;SDS011;41463;53.186;5.552;2022-12-29T00:18:45;14.88;;;8.23;;
55597;SDS011;41463;53.186;5.552;2022-12-29T00:21:33;8.57;;;6.97;;
55597;SDS011;41463;53.186;5.552;2022-12-29T00:24:28;10.00;;;6.45;;
55597;SDS011;41463;53.186;5.552;2022-12-29T00:27:15;15.80;;;7.55;;
55597;SDS011;41463;53.186;5.552;2022-12-29T00:30:02;9.07;;;6.05;;
55597;SDS011;41463;53.186;5.552;2022-12-29T00:32:46;8.30;;;6.13;;
55597;SDS011;41463;53.186;5.552;2022-12-29T00:35:39;10.68;;;6.40;;
55597;SDS011;41463;53.186;5.552;2022-12-29T00:38:24;9.95;;;6.68;;
55597;SDS011;41463;53.186;5.552;2022-12-29T00:41:08;10.93;;;5.15;;
55597;SDS011;41463;53.186;5.552;2022-12-29T00:44:01;10.43;;;5.80;;
55597;SDS011;41463;53.186;5.552;2022-12-29T00:46:43;9.45;;;5.97;;
55597;SDS011;41463;53.186;5.552;2022-12-29T00:49:12;13.25;;;5.45;;
55597;SDS011;41463;53.186;5.552;2022-12-29T00:52:05;8.95;;;5.32;;
55597;SDS011;41463;53.186;5.552;2022-12-29T00:54:40;10.68;;;5.38;;
55597;SDS011;41463;53.186;5.552;2022-12-29T00:57:08;10.98;;;6.85;;
55597;SDS011;41463;53.186;5.552;2022-12-29T00:59:37;10.48;;;7.45;;
55597;SDS011;41463;53.186;5.552;2022-12-29T01:02:04;10.48;;;8.32;;
55597;SDS011;41463;53.186;5.552;2022-12-29T01:04:33;13.90;;;9.43;;
55597;SDS011;41463;53.186;5.552;2022-12-29T01:07:06;14.98;;;10.50;;
55597;SDS011;41463;53.186;5.552;2022-12-29T01:09:35;14.40;;;10.80;;
55597;SDS011;41463;53.186;5.552;2022-12-29T01:12:30;17.40;;;12.20;;
55597;SDS011;41463;53.186;5.552;2022-12-29T01:15:11;12.95;;;10.75;;
55597;SDS011;41463;53.186;5.552;2022-12-29T01:17:39;13.57;;;10.40;;
55597;SDS011;41463;53.186;5.552;2022-12-29T01:20:05;18.52;;;12.00;;
55597;SDS011;41463;53.186;5.552;2022-12-29T01:22:31;15.52;;;11.40;;
55597;SDS011;41463;53.186;5.552;2022-12-29T01:24:57;17.88;;;12.95;;
55597;SDS011;41463;53.186;5.552;2022-12-29T01:27:23;18.35;;;12.60;;
55597;SDS011;41463;53.186;5.552;2022-12-29T01:30:06;15.65;;;11.90;;
55597;SDS011;41463;53.186;5.552;2022-12-29T01:32:34;15.10;;;12.27;;
55597;SDS011;41463;53.186;5.552;2022-12-29T01:35:07;18.58;;;11.68;;
55597;SDS011;41463;53.186;5.552;2022-12-29T01:37:36;17.08;;;11.57;;
55597;SDS011;41463;53.186;5.552;2022-12-29T01:40:04;21.48;;;13.35;;
55597;SDS011;41463;53.186;5.552;2022-12-29T01:42:36;24.08;;;13.60;;
55597;SDS011;41463;53.186;5.552;2022-12-29T01:45:09;19.20;;;12.68;;
55597;SDS011;41463;53.186;5.552;2022-12-29T01:47:43;14.15;;;10.95;;
55597;SDS011;41463;53.186;5.552;2022-12-29T01:50:20;18.48;;;12.45;;
55597;SDS011;41463;53.186;5.552;2022-12-29T01:52:53;18.23;;;12.63;;
55597;SDS011;41463;53.186;5.552;2022-12-29T01:55:28;19.17;;;12.80;;
55597;SDS011;41463;53.186;5.552;2022-12-29T01:58:03;19.30;;;12.27;;
55597;SDS011;41463;53.186;5.552;2022-12-29T02:00:31;18.10;;;12.18;;
55597;SDS011;41463;53.186;5.552;2022-12-29T02:03:02;19.30;;;12.30;;
55597;SDS011;41463;53.186;5.552;2022-12-29T02:05:32;17.45;;;12.07;;
55597;SDS011;41463;53.186;5.552;2022-12-29T02:08:05;17.50;;;12.48;;
55597;SDS011;41463;53.186;5.552;2022-12-29T02:10:41;27.58;;;13.98;;
55597;SDS011;41463;53.186;5.552;2022-12-29T02:13:14;26.13;;;14.55;;
55597;SDS011;41463;53.186;5.552;2022-12-29T02:27:34;9.82;;;3.72;;
55597;SDS011;41463;53.186;5.552;2022-12-29T02:33:48;5.35;;;1.70;;
55597;SDS011;41463;53.186;5.552;2022-12-29T02:42:49;4.90;;;0.95;;
55597;SDS011;41463;53.186;5.552;2022-12-29T02:51:35;4.18;;;2.13;;
55597;SDS011;41463;53.186;5.552;2022-12-29T02:54:17;5.40;;;2.33;;
55597;SDS011;41463;53.186;5.552;2022-12-29T02:57:15;7.35;;;3.38;;
55597;SDS011;41463;53.186;5.552;2022-12-29T03:00:17;4.38;;;2.50;;
55597;SDS011;41463;53.186;5.552;2022-12-29T03:05:55;6.93;;;3.20;;
55597;SDS011;41463;53.186;5.552;2022-12-29T03:11:12;14.98;;;3.40;;
55597;SDS011;41463;53.186;5.552;2022-12-29T03:17:27;17.92;;;3.67;;
55597;SDS011;41463;53.186;5.552;2022-12-29T03:20:11;17.25;;;3.85;;
55597;SDS011;41463;53.186;5.552;2022-12-29T03:22:47;16.40;;;3.30;;
55597;SDS011;41463;53.186;5.552;2022-12-29T03:28:44;21.80;;;3.65;;
55597;SDS011;41463;53.186;5.552;2022-12-29T03:31:15;26.23;;;3.63;;
55597;SDS011;41463;53.186;5.552;2022-12-29T03:33:42;24.63;;;3.80;;
55597;SDS011;41463;53.186;5.552;2022-12-29T03:36:23;16.92;;;3.20;;
55597;SDS011;41463;53.186;5.552;2022-12-29T03:39:12;24.20;;;3.80;;
55597;SDS011;41463;53.186;5.552;2022-12-29T03:44:56;19.67;;;3.25;;
55597;SDS011;41463;53.186;5.552;2022-12-29T03:50:23;20.85;;;3.38;;
55597;SDS011;41463;53.186;5.552;2022-12-29T03:53:00;18.50;;;3.65;;
55597;SDS011;41463;53.186;5.552;2022-12-29T03:55:29;18.70;;;3.55;;
55597;SDS011;41463;53.186;5.552;2022-12-29T03:58:01;22.30;;;3.33;;
55597;SDS011;41463;53.186;5.552;2022-12-29T04:00:30;17.13;;;3.10;;
55597;SDS011;41463;53.186;5.552;2022-12-29T04:03:21;14.63;;;2.75;;
55597;SDS011;41463;53.186;5.552;2022-12-29T04:05:50;19.58;;;3.45;;
55597;SDS011;41463;53.186;5.552;2022-12-29T04:08:31;15.90;;;3.30;;
55597;SDS011;41463;53.186;5.552;2022-12-29T04:11:18;22.45;;;3.80;;
55597;SDS011;41463;53.186;5.552;2022-12-29T04:16:59;20.50;;;3.80;;
55597;SDS011;41463;53.186;5.552;2022-12-29T04:19:53;31.77;;;3.97;;
55597;SDS011;41463;53.186;5.552;2022-12-29T04:28:23;30.10;;;4.53;;
55597;SDS011;41463;53.186;5.552;2022-12-29T04:30:52;22.55;;;4.20;;
55597;SDS011;41463;53.186;5.552;2022-12-29T04:33:43;31.95;;;4.40;;
55597;SDS011;41463;53.186;5.552;2022-12-29T04:36:15;37.47;;;5.32;;
55597;SDS011;41463;53.186;5.552;2022-12-29T04:38:56;36.78;;;4.80;;
55597;SDS011;41463;53.186;5.552;2022-12-29T04:41:33;39.10;;;5.30;;
55597;SDS011;41463;53.186;5.552;2022-12-29T04:44:15;40.75;;;4.55;;
55597;SDS011;41463;53.186;5.552;2022-12-29T04:47:06;35.10;;;5.78;;
55597;SDS011;41463;53.186;5.552;2022-12-29T04:49:46;40.83;;;5.88;;
55597;SDS011;41463;53.186;5.552;2022-12-29T04:52:40;32.08;;;4.57;;
55597;SDS011;41463;53.186;5.552;2022-12-29T04:55:17;39.90;;;5.70;;
55597;SDS011;41463;53.186;5.552;2022-12-29T04:57:54;33.03;;;5.45;;
55597;SDS011;41463;53.186;5.552;2022-12-29T05:00:20;40.38;;;5.47;;
55597;SDS011;41463;53.186;5.552;2022-12-29T05:02:49;40.22;;;5.97;;
55597;SDS011;41463;53.186;5.552;2022-12-29T05:05:26;44.42;;;5.30;;
55597;SDS011;41463;53.186;5.552;2022-12-29T05:08:01;30.95;;;5.22;;
55597;SDS011;41463;53.186;5.552;2022-12-29T05:14:46;31.95;;;4.40;;
55597;SDS011;41463;53.186;5.552;2022-12-29T05:17:41;37.13;;;4.90;;
55597;SDS011;41463;53.186;5.552;2022-12-29T05:20:22;33.67;;;4.75;;
55597;SDS011;41463;53.186;5.552;2022-12-29T05:22:54;29.83;;;4.65;;
55597;SDS011;41463;53.186;5.552;2022-12-29T05:25:53;32.92;;;5.22;;
55597;SDS011;41463;53.186;5.552;2022-12-29T05:28:22;26.33;;;4.30;;
55597;SDS011;41463;53.186;5.552;2022-12-29T05:30:53;27.42;;;4.20;;
55597;SDS011;41463;53.186;5.552;2022-12-29T05:33:38;22.75;;;3.92;;
55597;SDS011;41463;53.186;5.552;2022-12-29T05:36:26;30.85;;;4.25;;
55597;SDS011;41463;53.186;5.552;2022-12-29T05:39:07;26.52;;;4.22;;
55597;SDS011;41463;53.186;5.552;2022-12-29T05:41:52;34.63;;;4.82;;
55597;SDS011;41463;53.186;5.552;2022-12-29T05:44:41;30.45;;;4.63;;
55597;SDS011;41463;53.186;5.552;2022-12-29T05:47:20;29.65;;;4.15;;
55597;SDS011;41463;53.186;5.552;2022-12-29T05:49:58;28.17;;;4.35;;
55597;SDS011;41463;53.186;5.552;2022-12-29T05:55:39;32.10;;;5.05;;
55597;SDS011;41463;53.186;5.552;2022-12-29T05:58:11;28.20;;;4.18;;
55597;SDS011;41463;53.186;5.552;2022-12-29T06:00:37;29.80;;;4.70;;
55597;SDS011;41463;53.186;5.552;2022-12-29T06:03:08;28.58;;;4.80;;
55597;SDS011;41463;53.186;5.552;2022-12-29T06:06:00;28.05;;;5.03;;
55597;SDS011;41463;53.186;5.552;2022-12-29T06:08:32;31.60;;;5.93;;
55597;SDS011;41463;53.186;5.552;2022-12-29T06:11:47;23.55;;;3.85;;
55597;SDS011;41463;53.186;5.552;2022-12-29T06:14:33;26.85;;;4.90;;
55597;SDS011;41463;53.186;5.552;2022-12-29T06:17:14;37.58;;;6.18;;
55597;SDS011;41463;53.186;5.552;2022-12-29T06:19:43;31.40;;;5.28;;
55597;SDS011;41463;53.186;5.552;2022-12-29T06:22:11;29.52;;;5.18;;
55597;SDS011;41463;53.186;5.552;2022-12-29T06:24:43;33.83;;;4.72;;
55597;SDS011;41463;53.186;5.552;2022-12-29T06:27:09;43.55;;;6.47;;
55597;SDS011;41463;53.186;5.552;2022-12-29T06:29:53;35.10;;;5.45;;
55597;SDS011;41463;53.186;5.552;2022-12-29T06:32:24;28.15;;;5.60;;
55597;SDS011;41463;53.186;5.552;2022-12-29T06:35:12;32.55;;;5.40;;
55597;SDS011;41463;53.186;5.552;2022-12-29T06:37:41;33.75;;;4.97;;
55597;SDS011;41463;53.186;5.552;2022-12-29T06:40:20;36.78;;;5.50;;
55597;SDS011;41463;53.186;5.552;2022-12-29T06:42:52;34.70;;;4.93;;
55597;SDS011;41463;53.186;5.552;2022-12-29T06:45:23;39.03;;;5.72;;
55597;SDS011;41463;53.186;5.552;2022-12-29T06:47:52;37.05;;;5.32;;
55597;SDS011;41463;53.186;5.552;2022-12-29T06:50:20;38.38;;;6.00;;
55597;SDS011;41463;53.186;5.552;2022-12-29T06:53:04;38.00;;;5.45;;
55597;SDS011;41463;53.186;5.552;2022-12-29T06:58:30;32.10;;;4.88;;
55597;SDS011;41463;53.186;5.552;2022-12-29T07:01:25;33.58;;;5.47;;
55597;SDS011;41463;53.186;5.552;2022-12-29T07:03:53;36.10;;;5.97;;
55597;SDS011;41463;53.186;5.552;2022-12-29T07:06:44;34.60;;;5.45;;
55597;SDS011;41463;53.186;5.552;2022-12-29T07:12:04;30.15;;;4.38;;
55597;SDS011;41463;53.186;5.552;2022-12-29T07:14:48;31.58;;;5.18;;
55597;SDS011;41463;53.186;5.552;2022-12-29T07:17:46;36.97;;;5.57;;
55597;SDS011;41463;53.186;5.552;2022-12-29T07:20:14;36.58;;;5.20;;
55597;SDS011;41463;53.186;5.552;2022-12-29T07:25:15;40.75;;;5.25;;
55597;SDS011;41463;53.186;5.552;2022-12-29T07:28:09;33.80;;;5.60;;
55597;SDS011;41463;53.186;5.552;2022-12-29T07:31:00;34.85;;;5.22;;
55597;SDS011;41463;53.186;5.552;2022-12-29T07:33:38;31.75;;;4.88;;
55597;SDS011;41463;53.186;5.552;2022-12-29T07:36:17;31.55;;;4.60;;
55597;SDS011;41463;53.186;5.552;2022-12-29T07:38:59;30.48;;;4.78;;
55597;SDS011;41463;53.186;5.552;2022-12-29T07:41:34;31.70;;;4.82;;
55597;SDS011;41463;53.186;5.552;2022-12-29T07:44:17;29.60;;;4.82;;
55597;SDS011;41463;53.186;5.552;2022-12-29T07:46:52;33.50;;;5.25;;
55597;SDS011;41463;53.186;5.552;2022-12-29T07:49:49;32.35;;;5.63;;
55597;SDS011;41463;53.186;5.552;2022-12-29T07:52:25;33.67;;;5.22;;
55597;SDS011;41463;53.186;5.552;2022-12-29T07:55:12;31.85;;;4.85;;
55597;SDS011;41463;53.186;5.552;2022-12-29T07:57:44;37.00;;;5.50;;
55597;SDS011;41463;53.186;5.552;2022-12-29T08:00:10;30.60;;;5.55;;
55597;SDS011;41463;53.186;5.552;2022-12-29T08:02:36;38.28;;;5.30;;
55597;SDS011;41463;53.186;5.552;2022-12-29T08:05:18;24.70;;;4.65;;
55597;SDS011;41463;53.186;5.552;2022-12-29T08:10:24;44.05;;;6.15;;
55597;SDS011;41463;53.186;5.552;2022-12-29T08:12:57;43.55;;;6.30;;
55597;SDS011;41463;53.186;5.552;2022-12-29T08:15:34;40.47;;;6.10;;
55597;SDS011;41463;53.186;5.552;2022-12-29T08:18:17;34.42;;;5.45;;
55597;SDS011;41463;53.186;5.552;2022-12-29T08:21:05;50.30;;;6.43;;
55597;SDS011;41463;53.186;5.552;2022-12-29T08:23:31;49.22;;;7.25;;
55597;SDS011;41463;53.186;5.552;2022-12-29T08:26:39;48.78;;;5.70;;
55597;SDS011;41463;53.186;5.552;2022-12-29T08:29:13;56.03;;;7.57;;
55597;SDS011;41463;53.186;5.552;2022-12-29T08:31:46;56.17;;;7.72;;
55597;SDS011;41463;53.186;5.552;2022-12-29T08:34:13;55.60;;;7.10;;
55597;SDS011;41463;53.186;5.552;2022-12-29T08:36:49;53.92;;;6.03;;
55597;SDS011;41463;53.186;5.552;2022-12-29T08:39:23;53.17;;;6.43;;
55597;SDS011;41463;53.186;5.552;2022-12-29T08:42:19;50.97;;;7.10;;
55597;SDS011;41463;53.186;5.552;2022-12-29T08:45:01;46.97;;;6.53;;
55597;SDS011;41463;53.186;5.552;2022-12-29T08:47:27;40.35;;;6.47;;
55597;SDS011;41463;53.186;5.552;2022-12-29T08:50:00;43.55;;;6.47;;
55597;SDS011;41463;53.186;5.552;2022-12-29T08:52:36;50.33;;;7.40;;
55597;SDS011;41463;53.186;5.552;2022-12-29T08:55:05;48.90;;;7.43;;
55597;SDS011;41463;53.186;5.552;2022-12-29T08:57:44;40.50;;;5.95;;
55597;SDS011;41463;53.186;5.552;2022-12-29T09:00:15;40.03;;;6.18;;
55597;SDS011;41463;53.186;5.552;2022-12-29T09:03:01;42.22;;;6.82;;
55597;SDS011;41463;53.186;5.552;2022-12-29T09:05:55;45.53;;;6.35;;
55597;SDS011;41463;53.186;5.552;2022-12-29T09:08:24;52.28;;;6.80;;
55597;SDS011;41463;53.186;5.552;2022-12-29T09:11:21;52.40;;;7.38;;
55597;SDS011;41463;53.186;5.552;2022-12-29T09:13:56;61.88;;;8.65;;
55597;SDS011;41463;53.186;5.552;2022-12-29T09:16:27;59.17;;;8.38;;
55597;SDS011;41463;53.186;5.552;2022-12-29T09:18:56;60.58;;;7.03;;
55597;SDS011;41463;53.186;5.552;2022-12-29T09:21:21;53.13;;;7.10;;
55597;SDS011;41463;53.186;5.552;2022-12-29T09:23:47;58.35;;;8.23;;
55597;SDS011;41463;53.186;5.552;2022-12-29T09:26:14;58.60;;;7.95;;
55597;SDS011;41463;53.186;5.552;2022-12-29T09:28:39;50.97;;;7.50;;
55597;SDS011;41463;53.186;5.552;2022-12-29T09:31:06;51.47;;;7.10;;
55597;SDS011;41463;53.186;5.552;2022-12-29T09:33:32;50.90;;;7.40;;
55597;SDS011;41463;53.186;5.552;2022-12-29T09:36:19;56.08;;;7.60;;
55597;SDS011;41463;53.186;5.552;2022-12-29T09:38:45;44.85;;;7.90;;
55597;SDS011;41463;53.186;5.552;2022-12-29T09:41:47;44.15;;;11.50;;
55597;SDS011;41463;53.186;5.552;2022-12-29T09:47:42;44.42;;;10.85;;
55597;SDS011;41463;53.186;5.552;2022-12-29T09:56:02;56.58;;;10.77;;
55597;SDS011;41463;53.186;5.552;2022-12-29T09:58:39;66.10;;;13.40;;
55597;SDS011;41463;53.186;5.552;2022-12-29T10:01:41;69.20;;;11.60;;
55597;SDS011;41463;53.186;5.552;2022-12-29T10:04:12;49.63;;;9.50;;
55597;SDS011;41463;53.186;5.552;2022-12-29T10:09:34;64.82;;;8.63;;
55597;SDS011;41463;53.186;5.552;2022-12-29T10:12:46;62.08;;;12.50;;
55597;SDS011;41463;53.186;5.552;2022-12-29T10:21:37;55.17;;;8.85;;
55597;SDS011;41463;53.186;5.552;2022-12-29T10:24:41;55.92;;;8.15;;
55597;SDS011;41463;53.186;5.552;2022-12-29T10:27:30;54.35;;;7.72;;
55597;SDS011;41463;53.186;5.552;2022-12-29T10:30:11;52.10;;;7.45;;
55597;SDS011;41463;53.186;5.552;2022-12-29T10:33:25;44.60;;;6.30;;
55597;SDS011;41463;53.186;5.552;2022-12-29T10:35:39;44.67;;;7.05;;
55597;SDS011;41463;53.186;5.552;2022-12-29T10:41:32;36.45;;;6.13;;
55597;SDS011;41463;53.186;5.552;2022-12-29T10:44:09;33.95;;;6.38;;
55597;SDS011;41463;53.186;5.552;2022-12-29T10:46:54;45.47;;;6.47;;
55597;SDS011;41463;53.186;5.552;2022-12-29T10:49:28;41.38;;;7.75;;
55597;SDS011;41463;53.186;5.552;2022-12-29T10:52:19;35.55;;;5.68;;
55597;SDS011;41463;53.186;5.552;2022-12-29T10:55:23;45.20;;;6.22;;
55597;SDS011;41463;53.186;5.552;2022-12-29T10:58:28;37.83;;;6.03;;
55597;SDS011;41463;53.186;5.552;2022-12-29T11:01:14;35.72;;;6.20;;
55597;SDS011;41463;53.186;5.552;2022-12-29T11:04:04;31.88;;;4.68;;
55597;SDS011;41463;53.186;5.552;2022-12-29T11:06:51;29.83;;;5.47;;
55597;SDS011;41463;53.186;5.552;2022-12-29T11:09:53;31.13;;;4.93;;
55597;SDS011;41463;53.186;5.552;2022-12-29T11:15:48;28.73;;;4.90;;
55597;SDS011;41463;53.186;5.552;2022-12-29T11:28:33;16.67;;;4.65;;
55597;SDS011;41463;53.186;5.552;2022-12-29T11:31:08;23.20;;;4.15;;
55597;SDS011;41463;53.186;5.552;2022-12-29T11:33:50;26.52;;;5.45;;
55597;SDS011;41463;53.186;5.552;2022-12-29T11:37:06;20.98;;;4.05;;
55597;SDS011;41463;53.186;5.552;2022-12-29T11:40:02;20.90;;;4.00;;
55597;SDS011;41463;53.186;5.552;2022-12-29T11:42:52;23.13;;;3.60;;
55597;SDS011;41463;53.186;5.552;2022-12-29T11:45:38;23.40;;;4.10;;
55597;SDS011;41463;53.186;5.552;2022-12-29T11:48:31;20.52;;;3.38;;
55597;SDS011;41463;53.186;5.552;2022-12-29T11:54:20;28.73;;;4.63;;
55597;SDS011;41463;53.186;5.552;2022-12-29T11:56:58;27.80;;;3.65;;
55597;SDS011;41463;53.186;5.552;2022-12-29T12:00:09;20.30;;;4.47;;
55597;SDS011;41463;53.186;5.552;2022-12-29T12:06:11;22.73;;;5.07;;
55597;SDS011;41463;53.186;5.552;2022-12-29T12:08:39;17.85;;;4.13;;
55597;SDS011;41463;53.186;5.552;2022-12-29T12:11:22;18.20;;;3.78;;
55597;SDS011;41463;53.186;5.552;2022-12-29T12:14:04;19.85;;;3.10;;
55597;SDS011;41463;53.186;5.552;2022-12-29T12:16:54;18.57;;;3.57;;
55597;SDS011;41463;53.186;5.552;2022-12-29T12:22:31;23.50;;;4.45;;
55597;SDS011;41463;53.186;5.552;2022-12-29T12:25:34;24.33;;;3.17;;
55597;SDS011;41463;53.186;5.552;2022-12-29T12:28:25;22.63;;;3.70;;
55597;SDS011;41463;53.186;5.552;2022-12-29T12:31:21;18.95;;;3.20;;
55597;SDS011;41463;53.186;5.552;2022-12-29T12:34:39;21.73;;;3.88;;
55597;SDS011;41463;53.186;5.552;2022-12-29T12:37:21;14.65;;;2.92;;
55597;SDS011;41463;53.186;5.552;2022-12-29T12:40:33;15.05;;;3.47;;
55597;SDS011;41463;53.186;5.552;2022-12-29T12:43:46;16.75;;;3.35;;
55597;SDS011;41463;53.186;5.552;2022-12-29T12:58:49;14.52;;;3.03;;
55597;SDS011;41463;53.186;5.552;2022-12-29T13:25:44;16.70;;;2.97;;
55597;SDS011;41463;53.186;5.552;2022-12-29T13:35:10;15.65;;;3.13;;
55597;SDS011;41463;53.186;5.552;2022-12-29T13:41:24;15.70;;;3.30;;
55597;SDS011;41463;53.186;5.552;2022-12-29T13:48:28;16.08;;;2.40;;
55597;SDS011;41463;53.186;5.552;2022-12-29T13:51:59;16.48;;;3.83;;
55597;SDS011;41463;53.186;5.552;2022-12-29T14:01:34;13.68;;;3.35;;
55597;SDS011;41463;53.186;5.552;2022-12-29T14:05:05;17.80;;;3.33;;
55597;SDS011;41463;53.186;5.552;2022-12-29T14:08:18;24.05;;;4.00;;
55597;SDS011;41463;53.186;5.552;2022-12-29T14:11:26;14.88;;;2.83;;
55597;SDS011;41463;53.186;5.552;2022-12-29T14:14:29;13.20;;;3.15;;
55597;SDS011;41463;53.186;5.552;2022-12-29T14:21:18;20.33;;;3.20;;
55597;SDS011;41463;53.186;5.552;2022-12-29T14:27:50;20.65;;;3.70;;
55597;SDS011;41463;53.186;5.552;2022-12-29T14:51:56;15.48;;;3.00;;
55597;SDS011;41463;53.186;5.552;2022-12-29T15:02:33;19.30;;;3.30;;
55597;SDS011;41463;53.186;5.552;2022-12-29T15:05:44;20.45;;;3.47;;
55597;SDS011;41463;53.186;5.552;2022-12-29T15:11:52;19.17;;;3.05;;
55597;SDS011;41463;53.186;5.552;2022-12-29T15:18:29;28.27;;;11.43;;
55597;SDS011;41463;53.186;5.552;2022-12-29T15:21:30;22.42;;;6.03;;
55597;SDS011;41463;53.186;5.552;2022-12-29T15:30:26;17.67;;;4.93;;
55597;SDS011;41463;53.186;5.552;2022-12-29T15:33:37;18.90;;;3.67;;
55597;SDS011;41463;53.186;5.552;2022-12-29T15:39:36;16.63;;;3.90;;
55597;SDS011;41463;53.186;5.552;2022-12-29T15:49:11;10.68;;;2.90;;
55597;SDS011;41463;53.186;5.552;2022-12-29T15:52:38;16.05;;;3.47;;
55597;SDS011;41463;53.186;5.552;2022-12-29T15:56:15;16.88;;;3.85;;
55597;SDS011;41463;53.186;5.552;2022-12-29T16:03:35;23.38;;;4.10;;
55597;SDS011;41463;53.186;5.552;2022-12-29T16:06:59;26.70;;;3.75;;
55597;SDS011;41463;53.186;5.552;2022-12-29T16:13:39;19.55;;;3.47;;
55597;SDS011;41463;53.186;5.552;2022-12-29T16:16:43;21.40;;;3.67;;
55597;SDS011;41463;53.186;5.552;2022-12-29T16:31:03;17.25;;;3.13;;
55597;SDS011;41463;53.186;5.552;2022-12-29T16:33:45;22.05;;;3.88;;
55597;SDS011;41463;53.186;5.552;2022-12-29T16:57:44;26.58;;;4.63;;
55597;SDS011;41463;53.186;5.552;2022-12-29T17:00:49;19.90;;;4.45;;
55597;SDS011;41463;53.186;5.552;2022-12-29T17:20:21;22.95;;;3.88;;
55597;SDS011;41463;53.186;5.552;2022-12-29T17:23:29;27.25;;;6.28;;
55597;SDS011;41463;53.186;5.552;2022-12-29T17:33:44;21.75;;;4.13;;
55597;SDS011;41463;53.186;5.552;2022-12-29T17:36:43;17.95;;;3.85;;
55597;SDS011;41463;53.186;5.552;2022-12-29T17:47:04;32.63;;;10.05;;
55597;SDS011;41463;53.186;5.552;2022-12-29T17:50:05;25.80;;;5.68;;
55597;SDS011;41463;53.186;5.552;2022-12-29T17:56:35;19.35;;;4.30;;
55597;SDS011;41463;53.186;5.552;2022-12-29T17:59:17;16.52;;;4.50;;
55597;SDS011;41463;53.186;5.552;2022-12-29T18:02:32;20.17;;;3.63;;
55597;SDS011;41463;53.186;5.552;2022-12-29T18:08:23;19.58;;;4.00;;
55597;SDS011;41463;53.186;5.552;2022-12-29T18:11:05;21.13;;;3.72;;
55597;SDS011;41463;53.186;5.552;2022-12-29T18:14:15;23.40;;;4.10;;
55597;SDS011;41463;53.186;5.552;2022-12-29T18:16:58;26.17;;;4.20;;
55597;SDS011;41463;53.186;5.552;2022-12-29T18:27:08;30.52;;;5.90;;
55597;SDS011;41463;53.186;5.552;2022-12-29T18:33:27;29.73;;;9.82;;
55597;SDS011;41463;53.186;5.552;2022-12-29T18:39:54;20.10;;;4.35;;
55597;SDS011;41463;53.186;5.552;2022-12-29T18:47:21;17.55;;;3.92;;
55597;SDS011;41463;53.186;5.552;2022-12-29T18:50:21;27.67;;;4.72;;
55597;SDS011;41463;53.186;5.552;2022-12-29T18:53:25;27.00;;;5.38;;
55597;SDS011;41463;53.186;5.552;2022-12-29T19:03:52;18.23;;;4.20;;
55597;SDS011;41463;53.186;5.552;2022-12-29T19:17:48;22.52;;;4.38;;
55597;SDS011;41463;53.186;5.552;2022-12-29T20:11:46;31.55;;;5.65;;
55597;SDS011;41463;53.186;5.552;2022-12-29T20:26:10;20.65;;;4.05;;
55597;SDS011;41463;53.186;5.552;2022-12-29T21:28:50;19.75;;;4.90;;
55597;SDS011;41463;53.186;5.552;2022-12-29T22:39:58;18.92;;;3.65;;
55597;SDS011;41463;53.186;5.552;2022-12-29T23:09:09;25.35;;;4.32;;
55597;SDS011;41463;53.186;5.552;2022-12-29T23:16:51;28.35;;;5.28;;
55597;SDS011;41463;53.186;5.552;2022-12-29T23:32:08;29.13;;;5.25;;
55597;SDS011;41463;53.186;5.552;2022-12-29T23:39:09;21.05;;;5.35;;
55597;SDS011;41463;53.186;5.552;2022-12-29T23:42:23;20.85;;;4.82;;
